KOGB/OGB METAR and TAF weather

Enter ICAO airport designator
Station Type Date Time Source
KOGB METAR 2022/05/24 12:32 UTC NOAA

KOGB 241232Z AUTO 24003KT 10SM FEW005 21/21 A3009 RMK AO2 T02110206


Station Type Date Time Source
KOGB Decoded METAR 2022/05/24 12:32 UTC NOAA

ORANGEBURG MUNICIPAL AIRPORT, SC, United States (KOGB) 33-28N 080-51W 59M
May 24, 2022 - 08:32 AM EDT / 2022.05.24 1232 UTC
Wind: from the WSW (240 degrees) at 3 MPH (3 KT):0
Visibility: 10 mile(s):0
Sky conditions: mostly clear
Temperature: 70.0 F (21.1 C)
Dew Point: 69.1 F (20.6 C)
Relative Humidity: 96%
Pressure (altimeter): 30.09 in. Hg (1018 hPa)
ob: KOGB 241232Z AUTO 24003KT 10SM FEW005 21/21 A3009 RMK AO2 T02110206
cycle: 12

Station Type Date Time Source
KOGB TAF 2022/05/24 12:30 UTC NOAA

TAF KOGB 241129Z 2412/2512 VRB04KT P6SM SCT015 BKN100
FM241500 23007KT P6SM BKN035
FM242000 24008KT P6SM VCSH SCT050 BKN100
FM250300 06007KT P6SM SCT015 BKN040
FM250700 06007KT P6SM SCT007 BKN015

Example: see airport list